HappyWetter - St.Margarethen im Burgenland
Wetterdaten: aktuell Mittwoch, 24.07.2019 06:36
Datum Zeit Temp. A. Feuchte A. Luftdruck Regen Wind Richtung Richtung Sonnenschein ET Solar Taupunkt Windchill Windben Empfang
24.07.2019 06:36 17,7 C 89 % 1017,3 hPa 0,0 l/m 0,3 km/h (0 Bft) NO 46 0 min 0,000 mm 104 W/m 15,9 C 17,7 C 1,6 km/h (1 Bft) 100,00 %
24.07.2019 05:36 17,2 C 85 % 1017,6 hPa 0,0 l/m 1,2 km/h (1 Bft) NO 46 0 min 0,025 mm 11 W/m 14,7 C 17,2 C 3,2 km/h (1 Bft) 100,00 %
24.07.2019 04:36 17,5 C 82 % 1017,3 hPa 0,0 l/m 0,0 km/h (0 Bft) SO 138 0 min 0,001 mm 0 W/m 14,4 C 17,5 C 0,0 km/h (0 Bft) 100,00 %
24.07.2019 03:35 18,8 C 78 % 1017,3 hPa 0,0 l/m 2,8 km/h (1 Bft) SO 138 0 min 0,025 mm 0 W/m 14,9 C 18,8 C 4,8 km/h (1 Bft) 100,00 %
24.07.2019 02:34 19,9 C 75 % 1017,6 hPa 0,0 l/m 0,0 km/h (0 Bft) N 355 0 min 0,026 mm 0 W/m 15,3 C 19,9 C 0,0 km/h (0 Bft) 100,00 %
24.07.2019 01:34 20,9 C 76 % 1017,8 hPa 0,0 l/m 0,7 km/h (0 Bft) N 355 0 min 0,025 mm 0 W/m 16,5 C 20,9 C 1,6 km/h (1 Bft) 100,00 %
24.07.2019 00:34 21,3 C 70 % 1017,3 hPa 0,0 l/m 0,3 km/h (0 Bft) NW 325 0 min 0,000 mm 0 W/m 15,6 C 21,3 C 1,6 km/h (1 Bft) 100,00 %
23.07.2019 23:33 22,3 C 67 % 1016,7 hPa 0,0 l/m 0,6 km/h (0 Bft) O 95 0 min 0,051 mm 0 W/m 15,9 C 22,3 C 1,6 km/h (1 Bft) 100,00 %
23.07.2019 22:33 25,9 C 56 % 1016,4 hPa 0,0 l/m 0,0 km/h (0 Bft) N-NW 346 0 min 0,051 mm 0 W/m 16,4 C 25,9 C 0,0 km/h (0 Bft) 100,00 %
23.07.2019 21:32 27,7 C 51 % 1016,2 hPa 0,0 l/m 3,2 km/h (1 Bft) N 11 0 min 0,051 mm 0 W/m 16,6 C 27,7 C 4,8 km/h (1 Bft) 100,00 %
23.07.2019 20:32 30,6 C 44 % 1015,9 hPa 0,0 l/m 1,7 km/h (1 Bft) N-NW 342 0 min 0,178 mm 7 W/m 16,9 C 30,6 C 3,2 km/h (1 Bft) 100,00 %
23.07.2019 19:32 31,9 C 40 % 1015,8 hPa 0,0 l/m 9,4 km/h (2 Bft) W-NW 290 22 min 0,203 mm 90 W/m 16,6 C 31,8 C 16,1 km/h (3 Bft) 95,83 %
23.07.2019 18:32 31,9 C 40 % 1015,9 hPa 0,0 l/m 6,6 km/h (2 Bft) N-NW 337 34 min 0,330 mm 90 W/m 16,6 C 31,9 C 11,3 km/h (2 Bft) 96,15 %
23.07.2019 17:32 31,5 C 41 % 1016,4 hPa 0,0 l/m 10,6 km/h (2 Bft) N-NW 345 56 min 0,406 mm 499 W/m 16,6 C 31,3 C 16,1 km/h (3 Bft) 95,83 %
23.07.2019 16:32 32,3 C 39 % 1016,8 hPa 0,0 l/m 17,6 km/h (3 Bft) NW 318 60 min 0,534 mm 262 W/m 16,5 C 32,1 C 20,9 km/h (4 Bft) 100,00 %
23.07.2019 15:31 31,8 C 40 % 1017,1 hPa 0,0 l/m 17,3 km/h (3 Bft) W 281 60 min 0,660 mm 582 W/m 16,5 C 31,5 C 22,5 km/h (4 Bft) 100,00 %
23.07.2019 14:31 31,3 C 42 % 1017,6 hPa 0,0 l/m 17,8 km/h (3 Bft) NW 309 60 min 0,686 mm 819 W/m 16,8 C 30,9 C 25,7 km/h (4 Bft) 100,00 %
23.07.2019 13:30 30,8 C 43 % 1018,3 hPa 0,0 l/m 17,1 km/h (3 Bft) N 360 60 min 0,686 mm 809 W/m 16,7 C 30,3 C 24,1 km/h (4 Bft) 100,00 %
23.07.2019 12:30 29,9 C 45 % 1018,7 hPa 0,0 l/m 15,0 km/h (3 Bft) N-NW 348 60 min 0,584 mm 798 W/m 16,7 C 29,2 C 19,3 km/h (3 Bft) 100,00 %
23.07.2019 11:30 29,1 C 44 % 1019,2 hPa 0,0 l/m 14,9 km/h (3 Bft) N 360 60 min 0,559 mm 747 W/m 15,6 C 28,3 C 20,9 km/h (4 Bft) 96,43 %
23.07.2019 10:30 28,2 C 46 % 1019,4 hPa 0,0 l/m 19,6 km/h (3 Bft) NO 34 60 min 0,457 mm 659 W/m 15,5 C 26,8 C 25,7 km/h (4 Bft) 100,00 %
23.07.2019 09:29 27,7 C 50 % 1019,7 hPa 0,0 l/m 11,9 km/h (2 Bft) N-NW 342 60 min 0,356 mm 612 W/m 16,3 C 26,9 C 17,7 km/h (3 Bft) 100,00 %
23.07.2019 08:27 25,4 C 58 % 1019,4 hPa 0,0 l/m 13,2 km/h (3 Bft) W 278 47 min 0,127 mm 432 W/m 16,5 C 24,1 C 22,5 km/h (4 Bft) 100,00 %
23.07.2019 07:27 21,8 C 69 % 1019,2 hPa 0,0 l/m 3,1 km/h (1 Bft) W 269 8 min 0,050 mm 165 W/m 15,9 C 21,8 C 4,8 km/h (1 Bft) 100,00 %
23.07.2019 07:00 20,3 C 73 % 1019,0 hPa 0,0 l/m 5,9 km/h (2 Bft) W 262 0 min 0,050 mm 67 W/m 15,3 C 20,3 C 8,0 km/h (2 Bft) 100,00 %
_ Min-Zeit 06:14 18:42 19:38 - 06:28 - - - - - 06:04 06:14 06:28 08:40
Minimum _ 16,6 C 39 % 1015,7 hPa - 0,0 km/h (0 Bft) - - - - - 14,1 C 16,6 C 0,0 km/h (0 Bft) 85,71 %
_ Max-Zeit 18:09 06:36 09:19 06:36 14:07 - - 08:43 14:01 14:36 18:16 18:09 15:42 06:36
Maximum _ 32,4 C 89 % 1019,8 hPa 0,0 l/m 26,3 km/h
N-NW (4 Bft)
- - 3 min 0,686 mm 842 W/m 17,3 C 32,4 C 37,0 km/h
N-NW (5 Bft)
100,00 %
Durchschnitt _ 25,7 C 58 % 1017,6 hPa #0,0 l/m 7,8 km/h (2 Bft) N-NW - #0 min. #0,127 mm 33 W/m 16,1 C 25,4 C 11,5 km/h (2 Bft) 99,40 %